createdAt,value
2022-11-24T01:12:31.953Z,88.28
2022-11-24T01:41:25.783Z,89.21
2022-11-24T02:10:14.644Z,90.74
2022-11-24T02:39:04.653Z,90.42
2022-11-24T03:07:54.708Z,89.55
2022-11-24T03:36:23.618Z,88.27
2022-11-24T04:05:02.849Z,88.91
2022-11-24T04:33:38.460Z,90.69
2022-11-24T05:02:14.774Z,91.46
2022-11-24T05:30:52.613Z,90.42
2022-11-24T05:59:39.188Z,93.91
2022-11-24T06:28:04.066Z,96.19
2022-11-24T06:56:47.127Z,97.06
2022-11-24T07:25:25.932Z,95.45
2022-11-24T07:54:09.696Z,94.55
2022-11-24T08:22:38.298Z,94.85
2022-11-24T08:51:16.894Z,95.71
2022-11-24T09:49:55.364Z,91.31
2022-11-24T10:18:31.450Z,89.11
2022-11-24T10:47:26.475Z,85.64
2022-11-24T11:16:09.098Z,83.78
2022-11-24T11:44:45.375Z,70.36
2022-11-24T12:13:14.972Z,68.43
2022-11-24T12:41:45.811Z,65.69
2022-11-24T13:10:10.081Z,67.7
2022-11-24T13:38:55.402Z,67.77
2022-11-24T14:07:07.678Z,67.5
2022-11-24T14:35:12.489Z,71.71
2022-11-24T15:03:30.657Z,72.83
2022-11-24T15:34:29.339Z,75.53
2022-11-24T16:02:32.955Z,80.24
2022-11-24T16:31:28.214Z,83.31
2022-11-24T16:59:40.353Z,84.25
2022-11-24T17:27:46.153Z,84.49
2022-11-24T17:56:19.400Z,84.23
2022-11-24T18:24:40.253Z,84.41
2022-11-24T18:52:54.979Z,86.13
2022-11-24T19:21:20.684Z,85.64
2022-11-24T19:49:41.564Z,85.74
2022-11-24T20:18:09.984Z,86.97
2022-11-24T20:46:30.935Z,88.39
2022-11-24T21:15:01.682Z,88.48
2022-11-24T21:43:30.004Z,88
2022-11-24T22:11:51.221Z,88.83
2022-11-24T22:40:30.412Z,89.31
2022-11-24T23:09:13.563Z,92.34
2022-11-24T23:38:07.650Z,94.56
